sensor_id;sensor_type;location;lat;lon;timestamp;P1;durP1;ratioP1;P2;durP2;ratioP2
79460;SDS011;68929;42.666;23.324;2023-04-01T00:01:18;12.45;;;8.30;;
79460;SDS011;68929;42.666;23.324;2023-04-01T00:03:44;21.33;;;9.13;;
79460;SDS011;68929;42.666;23.324;2023-04-01T00:06:11;13.50;;;7.72;;
79460;SDS011;68929;42.666;23.324;2023-04-01T00:08:38;14.55;;;8.65;;
79460;SDS011;68929;42.666;23.324;2023-04-01T00:11:03;15.82;;;8.85;;
79460;SDS011;68929;42.666;23.324;2023-04-01T00:13:29;19.08;;;9.85;;
79460;SDS011;68929;42.666;23.324;2023-04-01T00:15:55;18.63;;;10.40;;
79460;SDS011;68929;42.666;23.324;2023-04-01T00:18:20;13.65;;;9.70;;
79460;SDS011;68929;42.666;23.324;2023-04-01T00:20:47;16.98;;;9.40;;
79460;SDS011;68929;42.666;23.324;2023-04-01T00:23:14;17.15;;;9.70;;
79460;SDS011;68929;42.666;23.324;2023-04-01T00:25:40;24.63;;;14.75;;
79460;SDS011;68929;42.666;23.324;2023-04-01T00:28:06;20.23;;;12.52;;
79460;SDS011;68929;42.666;23.324;2023-04-01T00:30:31;25.83;;;12.82;;
79460;SDS011;68929;42.666;23.324;2023-04-01T00:32:56;25.55;;;15.35;;
79460;SDS011;68929;42.666;23.324;2023-04-01T00:35:22;21.73;;;14.13;;
79460;SDS011;68929;42.666;23.324;2023-04-01T00:37:48;20.80;;;13.00;;
79460;SDS011;68929;42.666;23.324;2023-04-01T00:40:25;28.52;;;17.10;;
79460;SDS011;68929;42.666;23.324;2023-04-01T00:42:53;19.25;;;11.20;;
79460;SDS011;68929;42.666;23.324;2023-04-01T00:45:37;23.10;;;13.70;;
79460;SDS011;68929;42.666;23.324;2023-04-01T00:48:18;15.13;;;10.85;;
79460;SDS011;68929;42.666;23.324;2023-04-01T00:51:01;19.63;;;11.18;;
79460;SDS011;68929;42.666;23.324;2023-04-01T00:53:27;13.15;;;9.27;;
79460;SDS011;68929;42.666;23.324;2023-04-01T00:56:02;21.55;;;12.93;;
79460;SDS011;68929;42.666;23.324;2023-04-01T00:58:32;17.83;;;12.05;;
79460;SDS011;68929;42.666;23.324;2023-04-01T01:01:02;17.45;;;10.85;;
79460;SDS011;68929;42.666;23.324;2023-04-01T01:03:28;18.58;;;10.75;;
79460;SDS011;68929;42.666;23.324;2023-04-01T01:06:04;15.88;;;10.82;;
79460;SDS011;68929;42.666;23.324;2023-04-01T01:09:05;20.55;;;11.55;;
79460;SDS011;68929;42.666;23.324;2023-04-01T01:17:32;18.73;;;10.88;;
79460;SDS011;68929;42.666;23.324;2023-04-01T01:32:03;17.88;;;9.32;;
79460;SDS011;68929;42.666;23.324;2023-04-01T01:37:11;12.27;;;8.17;;
79460;SDS011;68929;42.666;23.324;2023-04-01T01:39:43;13.10;;;8.15;;
79460;SDS011;68929;42.666;23.324;2023-04-01T01:42:13;10.55;;;7.85;;
79460;SDS011;68929;42.666;23.324;2023-04-01T01:44:41;10.55;;;7.80;;
79460;SDS011;68929;42.666;23.324;2023-04-01T01:47:10;19.15;;;9.80;;
79460;SDS011;68929;42.666;23.324;2023-04-01T01:49:36;15.60;;;9.30;;
79460;SDS011;68929;42.666;23.324;2023-04-01T01:52:04;12.23;;;8.02;;
79460;SDS011;68929;42.666;23.324;2023-04-01T01:54:29;15.13;;;8.82;;
79460;SDS011;68929;42.666;23.324;2023-04-01T01:57:05;19.92;;;9.05;;
79460;SDS011;68929;42.666;23.324;2023-04-01T01:59:35;15.73;;;7.93;;
79460;SDS011;68929;42.666;23.324;2023-04-01T02:02:03;16.52;;;8.30;;
79460;SDS011;68929;42.666;23.324;2023-04-01T02:04:37;12.65;;;7.43;;
79460;SDS011;68929;42.666;23.324;2023-04-01T02:07:08;11.63;;;7.45;;
79460;SDS011;68929;42.666;23.324;2023-04-01T02:09:40;16.30;;;7.35;;
79460;SDS011;68929;42.666;23.324;2023-04-01T02:12:07;17.10;;;8.23;;
79460;SDS011;68929;42.666;23.324;2023-04-01T02:17:26;14.73;;;7.32;;
79460;SDS011;68929;42.666;23.324;2023-04-01T02:20:06;12.90;;;7.40;;
79460;SDS011;68929;42.666;23.324;2023-04-01T02:22:37;12.02;;;6.78;;
79460;SDS011;68929;42.666;23.324;2023-04-01T02:25:13;16.80;;;7.03;;
79460;SDS011;68929;42.666;23.324;2023-04-01T02:27:43;9.80;;;5.78;;
79460;SDS011;68929;42.666;23.324;2023-04-01T02:30:10;11.70;;;5.80;;
79460;SDS011;68929;42.666;23.324;2023-04-01T02:32:37;12.82;;;5.97;;
79460;SDS011;68929;42.666;23.324;2023-04-01T02:35:07;11.80;;;6.60;;
79460;SDS011;68929;42.666;23.324;2023-04-01T02:37:35;10.25;;;6.30;;
79460;SDS011;68929;42.666;23.324;2023-04-01T02:40:02;13.35;;;6.25;;
79460;SDS011;68929;42.666;23.324;2023-04-01T02:42:28;14.20;;;6.78;;
79460;SDS011;68929;42.666;23.324;2023-04-01T02:44:54;14.27;;;6.22;;
79460;SDS011;68929;42.666;23.324;2023-04-01T02:47:19;9.82;;;6.07;;
79460;SDS011;68929;42.666;23.324;2023-04-01T02:49:45;12.20;;;6.38;;
79460;SDS011;68929;42.666;23.324;2023-04-01T02:52:10;7.53;;;5.68;;
79460;SDS011;68929;42.666;23.324;2023-04-01T02:54:36;11.63;;;5.82;;
79460;SDS011;68929;42.666;23.324;2023-04-01T02:57:01;12.00;;;7.13;;
79460;SDS011;68929;42.666;23.324;2023-04-01T02:59:27;12.48;;;5.82;;
79460;SDS011;68929;42.666;23.324;2023-04-01T03:01:52;10.30;;;6.03;;
79460;SDS011;68929;42.666;23.324;2023-04-01T03:04:17;11.05;;;6.43;;
79460;SDS011;68929;42.666;23.324;2023-04-01T03:06:43;11.85;;;6.55;;
79460;SDS011;68929;42.666;23.324;2023-04-01T03:09:08;11.63;;;7.28;;
79460;SDS011;68929;42.666;23.324;2023-04-01T03:11:34;16.55;;;8.20;;
79460;SDS011;68929;42.666;23.324;2023-04-01T03:13:59;12.50;;;7.50;;
79460;SDS011;68929;42.666;23.324;2023-04-01T03:16:24;13.63;;;7.15;;
79460;SDS011;68929;42.666;23.324;2023-04-01T03:18:50;20.85;;;9.43;;
79460;SDS011;68929;42.666;23.324;2023-04-01T03:21:18;15.73;;;9.05;;
79460;SDS011;68929;42.666;23.324;2023-04-01T03:23:45;13.82;;;7.50;;
79460;SDS011;68929;42.666;23.324;2023-04-01T03:26:11;13.80;;;7.53;;
79460;SDS011;68929;42.666;23.324;2023-04-01T03:28:37;15.73;;;8.43;;
79460;SDS011;68929;42.666;23.324;2023-04-01T03:31:05;13.88;;;8.10;;
79460;SDS011;68929;42.666;23.324;2023-04-01T03:33:31;13.13;;;8.00;;
79460;SDS011;68929;42.666;23.324;2023-04-01T03:35:56;16.92;;;9.75;;
79460;SDS011;68929;42.666;23.324;2023-04-01T03:38:22;22.80;;;15.73;;
79460;SDS011;68929;42.666;23.324;2023-04-01T03:40:48;15.02;;;10.68;;
79460;SDS011;68929;42.666;23.324;2023-04-01T03:43:13;15.18;;;11.05;;
79460;SDS011;68929;42.666;23.324;2023-04-01T03:45:46;16.30;;;10.77;;
79460;SDS011;68929;42.666;23.324;2023-04-01T03:48:13;13.00;;;9.55;;
79460;SDS011;68929;42.666;23.324;2023-04-01T03:50:40;14.70;;;8.20;;
79460;SDS011;68929;42.666;23.324;2023-04-01T03:53:06;10.93;;;7.70;;
79460;SDS011;68929;42.666;23.324;2023-04-01T03:55:31;11.95;;;7.57;;
79460;SDS011;68929;42.666;23.324;2023-04-01T03:57:57;14.82;;;7.97;;
79460;SDS011;68929;42.666;23.324;2023-04-01T04:00:22;13.90;;;8.25;;
79460;SDS011;68929;42.666;23.324;2023-04-01T04:02:47;16.52;;;7.03;;
79460;SDS011;68929;42.666;23.324;2023-04-01T04:05:13;13.95;;;8.32;;
79460;SDS011;68929;42.666;23.324;2023-04-01T04:07:39;13.98;;;8.93;;
79460;SDS011;68929;42.666;23.324;2023-04-01T04:10:05;14.85;;;6.65;;
79460;SDS011;68929;42.666;23.324;2023-04-01T04:12:31;13.27;;;6.97;;
79460;SDS011;68929;42.666;23.324;2023-04-01T04:14:56;15.35;;;8.38;;
79460;SDS011;68929;42.666;23.324;2023-04-01T04:17:22;14.23;;;7.18;;
79460;SDS011;68929;42.666;23.324;2023-04-01T04:19:47;9.93;;;7.07;;
79460;SDS011;68929;42.666;23.324;2023-04-01T04:22:13;13.60;;;7.82;;
79460;SDS011;68929;42.666;23.324;2023-04-01T04:24:38;12.32;;;8.35;;
79460;SDS011;68929;42.666;23.324;2023-04-01T04:27:03;19.77;;;8.43;;
79460;SDS011;68929;42.666;23.324;2023-04-01T04:29:29;16.60;;;8.85;;
79460;SDS011;68929;42.666;23.324;2023-04-01T04:31:55;18.80;;;8.98;;
79460;SDS011;68929;42.666;23.324;2023-04-01T04:34:20;15.70;;;8.48;;
79460;SDS011;68929;42.666;23.324;2023-04-01T04:36:47;12.23;;;7.82;;
79460;SDS011;68929;42.666;23.324;2023-04-01T04:39:13;17.73;;;8.38;;
79460;SDS011;68929;42.666;23.324;2023-04-01T04:41:39;9.48;;;6.55;;
79460;SDS011;68929;42.666;23.324;2023-04-01T04:44:05;13.73;;;7.95;;
79460;SDS011;68929;42.666;23.324;2023-04-01T04:46:30;12.77;;;7.43;;
79460;SDS011;68929;42.666;23.324;2023-04-01T04:48:56;11.80;;;7.18;;
79460;SDS011;68929;42.666;23.324;2023-04-01T04:51:22;11.90;;;6.80;;
79460;SDS011;68929;42.666;23.324;2023-04-01T04:53:48;11.52;;;7.00;;
79460;SDS011;68929;42.666;23.324;2023-04-01T04:56:17;10.65;;;7.05;;
79460;SDS011;68929;42.666;23.324;2023-04-01T04:58:46;11.98;;;7.00;;
79460;SDS011;68929;42.666;23.324;2023-04-01T05:01:13;14.82;;;9.00;;
79460;SDS011;68929;42.666;23.324;2023-04-01T05:03:40;12.90;;;7.40;;
79460;SDS011;68929;42.666;23.324;2023-04-01T05:06:07;15.60;;;8.77;;
79460;SDS011;68929;42.666;23.324;2023-04-01T05:08:34;12.93;;;7.25;;
79460;SDS011;68929;42.666;23.324;2023-04-01T05:11:00;16.98;;;9.02;;
79460;SDS011;68929;42.666;23.324;2023-04-01T05:13:27;12.27;;;7.13;;
79460;SDS011;68929;42.666;23.324;2023-04-01T05:15:52;13.07;;;7.03;;
79460;SDS011;68929;42.666;23.324;2023-04-01T05:18:18;13.90;;;7.22;;
79460;SDS011;68929;42.666;23.324;2023-04-01T05:20:47;12.40;;;7.53;;
79460;SDS011;68929;42.666;23.324;2023-04-01T05:23:16;23.48;;;9.75;;
79460;SDS011;68929;42.666;23.324;2023-04-01T05:25:42;17.83;;;8.65;;
79460;SDS011;68929;42.666;23.324;2023-04-01T05:28:09;24.55;;;8.45;;
79460;SDS011;68929;42.666;23.324;2023-04-01T05:30:35;22.17;;;9.75;;
79460;SDS011;68929;42.666;23.324;2023-04-01T05:33:00;17.38;;;9.05;;
79460;SDS011;68929;42.666;23.324;2023-04-01T05:35:26;16.17;;;8.30;;
79460;SDS011;68929;42.666;23.324;2023-04-01T05:37:51;25.08;;;10.50;;
79460;SDS011;68929;42.666;23.324;2023-04-01T05:40:17;11.13;;;7.07;;
79460;SDS011;68929;42.666;23.324;2023-04-01T05:42:42;13.23;;;7.55;;
79460;SDS011;68929;42.666;23.324;2023-04-01T05:45:11;11.13;;;6.03;;
79460;SDS011;68929;42.666;23.324;2023-04-01T05:47:36;10.00;;;6.10;;
79460;SDS011;68929;42.666;23.324;2023-04-01T05:50:02;13.43;;;6.30;;
79460;SDS011;68929;42.666;23.324;2023-04-01T05:52:27;12.02;;;6.75;;
79460;SDS011;68929;42.666;23.324;2023-04-01T05:54:53;14.45;;;5.63;;
79460;SDS011;68929;42.666;23.324;2023-04-01T05:57:18;16.77;;;5.60;;
79460;SDS011;68929;42.666;23.324;2023-04-01T05:59:45;11.40;;;5.20;;
79460;SDS011;68929;42.666;23.324;2023-04-01T06:02:11;10.77;;;5.85;;
79460;SDS011;68929;42.666;23.324;2023-04-01T06:04:42;11.25;;;6.55;;
79460;SDS011;68929;42.666;23.324;2023-04-01T06:07:18;8.32;;;4.50;;
79460;SDS011;68929;42.666;23.324;2023-04-01T06:09:44;10.07;;;5.10;;
79460;SDS011;68929;42.666;23.324;2023-04-01T06:17:20;6.97;;;4.38;;
79460;SDS011;68929;42.666;23.324;2023-04-01T06:28:48;13.48;;;4.72;;
79460;SDS011;68929;42.666;23.324;2023-04-01T06:34:03;8.50;;;3.85;;
79460;SDS011;68929;42.666;23.324;2023-04-01T06:36:53;8.07;;;4.50;;
79460;SDS011;68929;42.666;23.324;2023-04-01T06:53:36;6.55;;;4.97;;
79460;SDS011;68929;42.666;23.324;2023-04-01T06:56:20;14.48;;;7.78;;
79460;SDS011;68929;42.666;23.324;2023-04-01T06:58:52;9.75;;;4.65;;
79460;SDS011;68929;42.666;23.324;2023-04-01T07:01:22;8.85;;;5.18;;
79460;SDS011;68929;42.666;23.324;2023-04-01T07:06:45;8.48;;;4.90;;
79460;SDS011;68929;42.666;23.324;2023-04-01T07:09:12;8.32;;;4.80;;
79460;SDS011;68929;42.666;23.324;2023-04-01T07:11:43;8.48;;;4.63;;
79460;SDS011;68929;42.666;23.324;2023-04-01T07:16:47;9.55;;;4.65;;
79460;SDS011;68929;42.666;23.324;2023-04-01T07:24:55;12.20;;;6.25;;
79460;SDS011;68929;42.666;23.324;2023-04-01T07:27:23;9.35;;;4.70;;
79460;SDS011;68929;42.666;23.324;2023-04-01T07:29:48;11.98;;;6.25;;
79460;SDS011;68929;42.666;23.324;2023-04-01T07:34:59;11.10;;;6.32;;
79460;SDS011;68929;42.666;23.324;2023-04-01T07:37:31;9.43;;;6.38;;
79460;SDS011;68929;42.666;23.324;2023-04-01T07:40:21;9.68;;;5.07;;
79460;SDS011;68929;42.666;23.324;2023-04-01T07:51:35;14.68;;;6.05;;
79460;SDS011;68929;42.666;23.324;2023-04-01T08:04:23;11.93;;;6.50;;
79460;SDS011;68929;42.666;23.324;2023-04-01T08:07:05;6.68;;;4.85;;
79460;SDS011;68929;42.666;23.324;2023-04-01T08:20:41;14.55;;;7.35;;
79460;SDS011;68929;42.666;23.324;2023-04-01T08:25:51;17.75;;;7.28;;
79460;SDS011;68929;42.666;23.324;2023-04-01T08:33:53;12.55;;;5.88;;
79460;SDS011;68929;42.666;23.324;2023-04-01T08:36:24;17.15;;;7.03;;
79460;SDS011;68929;42.666;23.324;2023-04-01T08:42:00;9.50;;;6.45;;
79460;SDS011;68929;42.666;23.324;2023-04-01T08:45:00;14.65;;;5.95;;
79460;SDS011;68929;42.666;23.324;2023-04-01T08:55:37;10.10;;;4.68;;
79460;SDS011;68929;42.666;23.324;2023-04-01T09:01:11;16.77;;;6.40;;
79460;SDS011;68929;42.666;23.324;2023-04-01T09:14:37;12.15;;;4.93;;
79460;SDS011;68929;42.666;23.324;2023-04-01T09:35:01;12.75;;;4.75;;
79460;SDS011;68929;42.666;23.324;2023-04-01T09:46:11;8.30;;;4.45;;
79460;SDS011;68929;42.666;23.324;2023-04-01T10:27:51;9.43;;;4.10;;
79460;SDS011;68929;42.666;23.324;2023-04-01T11:29:06;8.85;;;3.70;;
79460;SDS011;68929;42.666;23.324;2023-04-01T11:34:43;8.60;;;2.88;;
79460;SDS011;68929;42.666;23.324;2023-04-01T11:37:29;7.35;;;2.72;;
79460;SDS011;68929;42.666;23.324;2023-04-01T11:42:52;13.48;;;2.60;;
79460;SDS011;68929;42.666;23.324;2023-04-01T11:58:49;12.00;;;5.38;;
79460;SDS011;68929;42.666;23.324;2023-04-01T12:01:29;10.00;;;3.85;;
79460;SDS011;68929;42.666;23.324;2023-04-01T12:09:30;8.40;;;4.40;;
79460;SDS011;68929;42.666;23.324;2023-04-01T12:17:43;8.52;;;3.45;;
79460;SDS011;68929;42.666;23.324;2023-04-01T12:20:37;7.05;;;2.67;;
79460;SDS011;68929;42.666;23.324;2023-04-01T12:25:53;8.50;;;3.80;;
79460;SDS011;68929;42.666;23.324;2023-04-01T12:51:04;7.53;;;3.88;;
79460;SDS011;68929;42.666;23.324;2023-04-01T12:56:32;9.15;;;5.07;;
79460;SDS011;68929;42.666;23.324;2023-04-01T13:02:07;6.15;;;3.88;;
79460;SDS011;68929;42.666;23.324;2023-04-01T13:07:31;8.65;;;4.65;;
79460;SDS011;68929;42.666;23.324;2023-04-01T13:21:11;3.83;;;2.60;;
79460;SDS011;68929;42.666;23.324;2023-04-01T13:26:22;5.15;;;2.83;;
79460;SDS011;68929;42.666;23.324;2023-04-01T13:28:53;8.25;;;3.47;;
79460;SDS011;68929;42.666;23.324;2023-04-01T13:31:41;7.97;;;3.17;;
79460;SDS011;68929;42.666;23.324;2023-04-01T13:34:48;7.03;;;3.30;;
79460;SDS011;68929;42.666;23.324;2023-04-01T13:37:45;11.80;;;4.35;;
79460;SDS011;68929;42.666;23.324;2023-04-01T13:43:15;7.63;;;3.40;;
79460;SDS011;68929;42.666;23.324;2023-04-01T13:45:51;8.50;;;3.53;;
79460;SDS011;68929;42.666;23.324;2023-04-01T13:49:02;4.93;;;3.58;;
79460;SDS011;68929;42.666;23.324;2023-04-01T13:52:14;7.47;;;3.88;;
79460;SDS011;68929;42.666;23.324;2023-04-01T13:55:04;4.25;;;2.70;;
79460;SDS011;68929;42.666;23.324;2023-04-01T14:19:45;3.58;;;2.38;;
79460;SDS011;68929;42.666;23.324;2023-04-01T14:22:34;4.28;;;1.90;;
79460;SDS011;68929;42.666;23.324;2023-04-01T14:47:27;5.68;;;3.85;;
79460;SDS011;68929;42.666;23.324;2023-04-01T14:52:40;8.05;;;4.00;;
79460;SDS011;68929;42.666;23.324;2023-04-01T14:58:08;6.55;;;3.50;;
79460;SDS011;68929;42.666;23.324;2023-04-01T15:00:55;8.73;;;3.58;;
79460;SDS011;68929;42.666;23.324;2023-04-01T15:03:33;6.78;;;4.00;;
79460;SDS011;68929;42.666;23.324;2023-04-01T15:22:01;5.13;;;3.15;;
79460;SDS011;68929;42.666;23.324;2023-04-01T15:40:30;4.30;;;2.88;;
79460;SDS011;68929;42.666;23.324;2023-04-01T15:43:32;5.35;;;3.20;;
79460;SDS011;68929;42.666;23.324;2023-04-01T16:00:48;3.15;;;2.40;;
79460;SDS011;68929;42.666;23.324;2023-04-01T16:16:53;12.57;;;6.60;;
79460;SDS011;68929;42.666;23.324;2023-04-01T16:22:32;7.88;;;5.13;;
79460;SDS011;68929;42.666;23.324;2023-04-01T16:30:48;5.57;;;4.73;;
79460;SDS011;68929;42.666;23.324;2023-04-01T16:33:25;5.75;;;4.85;;
79460;SDS011;68929;42.666;23.324;2023-04-01T16:39:08;4.13;;;3.53;;
79460;SDS011;68929;42.666;23.324;2023-04-01T16:41:47;3.75;;;3.42;;
79460;SDS011;68929;42.666;23.324;2023-04-01T16:44:18;5.95;;;3.65;;
79460;SDS011;68929;42.666;23.324;2023-04-01T16:47:05;4.22;;;3.40;;
79460;SDS011;68929;42.666;23.324;2023-04-01T16:49:42;4.00;;;3.60;;
79460;SDS011;68929;42.666;23.324;2023-04-01T16:55:16;2.97;;;2.78;;
79460;SDS011;68929;42.666;23.324;2023-04-01T17:00:26;3.50;;;2.60;;
79460;SDS011;68929;42.666;23.324;2023-04-01T17:11:02;2.40;;;2.20;;
79460;SDS011;68929;42.666;23.324;2023-04-01T17:22:33;2.60;;;2.30;;
79460;SDS011;68929;42.666;23.324;2023-04-01T17:28:06;2.53;;;2.22;;
79460;SDS011;68929;42.666;23.324;2023-04-01T17:31:10;2.83;;;2.20;;
79460;SDS011;68929;42.666;23.324;2023-04-01T17:42:00;2.55;;;1.85;;
79460;SDS011;68929;42.666;23.324;2023-04-01T17:44:43;2.33;;;2.13;;
79460;SDS011;68929;42.666;23.324;2023-04-01T17:50:23;2.83;;;2.45;;
79460;SDS011;68929;42.666;23.324;2023-04-01T17:55:46;3.47;;;2.08;;
79460;SDS011;68929;42.666;23.324;2023-04-01T18:17:21;5.10;;;4.18;;
79460;SDS011;68929;42.666;23.324;2023-04-01T18:22:21;6.35;;;4.97;;
79460;SDS011;68929;42.666;23.324;2023-04-01T18:24:56;7.50;;;5.20;;
79460;SDS011;68929;42.666;23.324;2023-04-01T18:27:36;7.43;;;5.50;;
79460;SDS011;68929;42.666;23.324;2023-04-01T18:49:59;3.38;;;3.08;;
79460;SDS011;68929;42.666;23.324;2023-04-01T18:52:37;3.45;;;2.50;;
79460;SDS011;68929;42.666;23.324;2023-04-01T19:03:45;2.88;;;2.63;;
79460;SDS011;68929;42.666;23.324;2023-04-01T19:06:26;1.80;;;1.70;;
79460;SDS011;68929;42.666;23.324;2023-04-01T19:08:52;2.60;;;2.10;;
79460;SDS011;68929;42.666;23.324;2023-04-01T19:19:29;2.80;;;2.60;;
79460;SDS011;68929;42.666;23.324;2023-04-01T19:22:18;3.30;;;3.00;;
79460;SDS011;68929;42.666;23.324;2023-04-01T19:30:54;3.35;;;1.60;;
79460;SDS011;68929;42.666;23.324;2023-04-01T19:36:09;2.28;;;1.90;;
79460;SDS011;68929;42.666;23.324;2023-04-01T19:42:03;2.42;;;1.95;;
79460;SDS011;68929;42.666;23.324;2023-04-01T19:44:41;2.30;;;2.05;;
79460;SDS011;68929;42.666;23.324;2023-04-01T19:53:06;1.90;;;1.52;;
79460;SDS011;68929;42.666;23.324;2023-04-01T19:56:30;2.20;;;2.00;;
79460;SDS011;68929;42.666;23.324;2023-04-01T20:18:23;2.10;;;1.90;;
79460;SDS011;68929;42.666;23.324;2023-04-01T20:21:03;3.13;;;2.30;;
79460;SDS011;68929;42.666;23.324;2023-04-01T20:26:10;2.90;;;2.13;;
79460;SDS011;68929;42.666;23.324;2023-04-01T20:28:48;3.15;;;1.90;;
79460;SDS011;68929;42.666;23.324;2023-04-01T20:31:42;2.17;;;1.83;;
79460;SDS011;68929;42.666;23.324;2023-04-01T20:37:20;2.53;;;2.10;;
79460;SDS011;68929;42.666;23.324;2023-04-01T20:40:02;2.50;;;1.85;;
79460;SDS011;68929;42.666;23.324;2023-04-01T21:02:22;4.93;;;2.38;;
79460;SDS011;68929;42.666;23.324;2023-04-01T21:07:34;4.10;;;2.42;;
79460;SDS011;68929;42.666;23.324;2023-04-01T21:13:08;4.22;;;2.10;;
79460;SDS011;68929;42.666;23.324;2023-04-01T21:15:50;3.42;;;2.25;;
79460;SDS011;68929;42.666;23.324;2023-04-01T21:18:47;2.05;;;1.60;;
79460;SDS011;68929;42.666;23.324;2023-04-01T21:21:37;2.20;;;2.00;;
79460;SDS011;68929;42.666;23.324;2023-04-01T21:27:12;4.43;;;2.10;;
79460;SDS011;68929;42.666;23.324;2023-04-01T21:37:57;1.88;;;1.60;;
79460;SDS011;68929;42.666;23.324;2023-04-01T22:05:22;2.78;;;1.73;;
79460;SDS011;68929;42.666;23.324;2023-04-01T22:13:40;3.05;;;1.58;;
79460;SDS011;68929;42.666;23.324;2023-04-01T22:16:41;1.63;;;1.50;;
79460;SDS011;68929;42.666;23.324;2023-04-01T22:19:17;1.85;;;1.52;;
79460;SDS011;68929;42.666;23.324;2023-04-01T22:32:17;1.77;;;1.25;;
79460;SDS011;68929;42.666;23.324;2023-04-01T22:34:52;1.30;;;1.20;;
79460;SDS011;68929;42.666;23.324;2023-04-01T22:40:00;2.10;;;1.25;;
79460;SDS011;68929;42.666;23.324;2023-04-01T22:48:18;2.15;;;1.50;;
79460;SDS011;68929;42.666;23.324;2023-04-01T22:56:01;2.55;;;1.55;;
79460;SDS011;68929;42.666;23.324;2023-04-01T22:58:42;2.67;;;1.40;;
79460;SDS011;68929;42.666;23.324;2023-04-01T23:01:16;3.47;;;1.60;;
79460;SDS011;68929;42.666;23.324;2023-04-01T23:03:47;1.42;;;1.33;;
79460;SDS011;68929;42.666;23.324;2023-04-01T23:06:17;3.22;;;1.90;;
79460;SDS011;68929;42.666;23.324;2023-04-01T23:11:35;4.07;;;1.20;;
79460;SDS011;68929;42.666;23.324;2023-04-01T23:16:48;1.85;;;1.15;;
79460;SDS011;68929;42.666;23.324;2023-04-01T23:27:51;0.90;;;0.77;;
79460;SDS011;68929;42.666;23.324;2023-04-01T23:31:02;1.00;;;0.80;;
79460;SDS011;68929;42.666;23.324;2023-04-01T23:38:18;1.00;;;0.90;;
79460;SDS011;68929;42.666;23.324;2023-04-01T23:40:47;3.42;;;1.00;;
79460;SDS011;68929;42.666;23.324;2023-04-01T23:43:25;1.10;;;1.00;;
79460;SDS011;68929;42.666;23.324;2023-04-01T23:46:01;1.10;;;0.85;;
79460;SDS011;68929;42.666;23.324;2023-04-01T23:48:42;1.00;;;0.90;;
79460;SDS011;68929;42.666;23.324;2023-04-01T23:54:07;1.90;;;0.90;;
79460;SDS011;68929;42.666;23.324;2023-04-01T23:56:40;1.02;;;0.93;;
79460;SDS011;68929;42.666;23.324;2023-04-01T23:59:17;2.55;;;1.00;;
